<?xml version="1.0" encoding="UTF-8"?><gpx xmlns="http://www.topografix.com/GPX/1/1" version="1.1" creator="iOrient"><trk><name>Серия открытых трейл-пробегов межсезонья - "Ботанический сад"</name><trkseg><trkpt lat="56.2560540" lon="44.0030680"><time>2018-03-21T22:33:41.653</time></trkpt><trkpt lat="56.2527330" lon="44.0031420"><time>2018-03-21T22:33:47.787</time></trkpt><trkpt lat="56.2528560" lon="44.0035360"><time>2018-03-21T22:33:56.013</time></trkpt><trkpt lat="56.2528840" lon="44.0039600"><time>2018-03-21T22:34:08.920</time></trkpt><trkpt lat="56.2528520" lon="44.0043940"><time>2018-03-21T22:34:17.917</time></trkpt><trkpt lat="56.2527880" lon="44.0048230"><time>2018-03-21T22:34:25.910</time></trkpt><trkpt lat="56.2527670" lon="44.0052530"><time>2018-03-21T22:34:34.913</time></trkpt><trkpt lat="56.2527630" lon="44.0056710"><time>2018-03-21T22:34:42.910</time></trkpt><trkpt lat="56.2527290" lon="44.0060720"><time>2018-03-21T22:34:51.910</time></trkpt><trkpt lat="56.2526850" lon="44.0064810"><time>2018-03-21T22:35:00.913</time></trkpt><trkpt lat="56.2526890" lon="44.0068920"><time>2018-03-21T22:35:09.910</time></trkpt><trkpt lat="56.2526490" lon="44.0073180"><time>2018-03-21T22:35:17.910</time></trkpt><trkpt lat="56.2526160" lon="44.0077210"><time>2018-03-21T22:35:25.913</time></trkpt><trkpt lat="56.2526150" lon="44.0081610"><time>2018-03-21T22:35:35.913</time></trkpt><trkpt lat="56.2526020" lon="44.0086050"><time>2018-03-21T22:35:45.930</time></trkpt><trkpt lat="56.2525660" lon="44.0090220"><time>2018-03-21T22:35:55.910</time></trkpt><trkpt lat="56.2525540" lon="44.0094360"><time>2018-03-21T22:36:04.910</time></trkpt><trkpt lat="56.2525340" lon="44.0098410"><time>2018-03-21T22:36:13.910</time></trkpt><trkpt lat="56.2525020" lon="44.0102490"><time>2018-03-21T22:36:23.910</time></trkpt><trkpt lat="56.2524880" lon="44.0106890"><time>2018-03-21T22:36:33.910</time></trkpt><trkpt lat="56.2524420" lon="44.0111130"><time>2018-03-21T22:36:42.910</time></trkpt><trkpt lat="56.2524250" lon="44.0115390"><time>2018-03-21T22:36:51.913</time></trkpt><trkpt lat="56.2523780" lon="44.0119380"><time>2018-03-21T22:36:59.910</time></trkpt><trkpt lat="56.2523380" lon="44.0123630"><time>2018-03-21T22:37:08.910</time></trkpt><trkpt lat="56.2523010" lon="44.0127700"><time>2018-03-21T22:37:17.910</time></trkpt><trkpt lat="56.2522870" lon="44.0131940"><time>2018-03-21T22:37:26.917</time></trkpt><trkpt lat="56.2522430" lon="44.0136090"><time>2018-03-21T22:37:35.910</time></trkpt><trkpt lat="56.2522170" lon="44.0140510"><time>2018-03-21T22:37:45.910</time></trkpt><trkpt lat="56.2521870" lon="44.0144730"><time>2018-03-21T22:37:54.910</time></trkpt><trkpt lat="56.2521430" lon="44.0148970"><time>2018-03-21T22:38:03.913</time></trkpt><trkpt lat="56.2521350" lon="44.0153350"><time>2018-03-21T22:38:12.957</time></trkpt><trkpt lat="56.2521540" lon="44.0157400"><time>2018-03-21T22:38:21.910</time></trkpt><trkpt lat="56.2521670" lon="44.0161830"><time>2018-03-21T22:38:31.917</time></trkpt><trkpt lat="56.2521420" lon="44.0166160"><time>2018-03-21T22:38:41.910</time></trkpt><trkpt lat="56.2521390" lon="44.0170450"><time>2018-03-21T22:38:52.907</time></trkpt><trkpt lat="56.2521130" lon="44.0174530"><time>2018-03-21T22:39:02.910</time></trkpt><trkpt lat="56.2520800" lon="44.0178600"><time>2018-03-21T22:39:12.910</time></trkpt><trkpt lat="56.2520430" lon="44.0182880"><time>2018-03-21T22:39:22.910</time></trkpt><trkpt lat="56.2519450" lon="44.0186700"><time>2018-03-21T22:39:34.910</time></trkpt><trkpt lat="56.2518200" lon="44.0190220"><time>2018-03-21T22:39:45.910</time></trkpt><trkpt lat="56.2516490" lon="44.0193290"><time>2018-03-21T22:39:55.910</time></trkpt><trkpt lat="56.2514350" lon="44.0195180"><time>2018-03-21T22:40:05.910</time></trkpt><trkpt lat="56.2512010" lon="44.0195930"><time>2018-03-21T22:40:13.907</time></trkpt><trkpt lat="56.2509930" lon="44.0197730"><time>2018-03-21T22:40:22.910</time></trkpt><trkpt lat="56.2508870" lon="44.0199320"><time>2018-03-21T22:40:31.310</time></trkpt><trkpt lat="56.2508150" lon="44.0200440"><time>2018-03-21T22:40:38.907</time></trkpt><trkpt lat="56.2505900" lon="44.0202380"><time>2018-03-21T22:40:46.907</time></trkpt><trkpt lat="56.2503900" lon="44.0204400"><time>2018-03-21T22:40:55.907</time></trkpt><trkpt lat="56.2501520" lon="44.0205530"><time>2018-03-21T22:41:04.907</time></trkpt><trkpt lat="56.2499220" lon="44.0205710"><time>2018-03-21T22:41:12.940</time></trkpt><trkpt lat="56.2496900" lon="44.0205940"><time>2018-03-21T22:41:21.907</time></trkpt><trkpt lat="56.2494960" lon="44.0208020"><time>2018-03-21T22:41:30.917</time></trkpt><trkpt lat="56.2492700" lon="44.0209020"><time>2018-03-21T22:41:40.917</time></trkpt><trkpt lat="56.2490530" lon="44.0207840"><time>2018-03-21T22:41:48.917</time></trkpt><trkpt lat="56.2488100" lon="44.0207940"><time>2018-03-21T22:41:58.913</time></trkpt><trkpt lat="56.2485640" lon="44.0207660"><time>2018-03-21T22:42:08.917</time></trkpt><trkpt lat="56.2483350" lon="44.0208880"><time>2018-03-21T22:42:18.977</time></trkpt><trkpt lat="56.2481110" lon="44.0209510"><time>2018-03-21T22:42:26.973</time></trkpt><trkpt lat="56.2478840" lon="44.0209970"><time>2018-03-21T22:42:34.967</time></trkpt><trkpt lat="56.2476460" lon="44.0209670"><time>2018-03-21T22:42:42.943</time></trkpt><trkpt lat="56.2474160" lon="44.0209660"><time>2018-03-21T22:42:50.940</time></trkpt><trkpt lat="56.2471750" lon="44.0209640"><time>2018-03-21T22:43:00.913</time></trkpt><trkpt lat="56.2469310" lon="44.0209860"><time>2018-03-21T22:43:08.910</time></trkpt><trkpt lat="56.2466870" lon="44.0209630"><time>2018-03-21T22:43:16.917</time></trkpt><trkpt lat="56.2464440" lon="44.0210250"><time>2018-03-21T22:43:24.943</time></trkpt><trkpt lat="56.2462420" lon="44.0212260"><time>2018-03-21T22:43:32.977</time></trkpt><trkpt lat="56.2460570" lon="44.0214580"><time>2018-03-21T22:43:39.917</time></trkpt><trkpt lat="56.2458480" lon="44.0216530"><time>2018-03-21T22:43:47.917</time></trkpt><trkpt lat="56.2456590" lon="44.0218820"><time>2018-03-21T22:43:56.913</time></trkpt><trkpt lat="56.2454670" lon="44.0221490"><time>2018-03-21T22:44:05.913</time></trkpt><trkpt lat="56.2453680" lon="44.0225260"><time>2018-03-21T22:44:15.907</time></trkpt><trkpt lat="56.2452190" lon="44.0228590"><time>2018-03-21T22:44:25.917</time></trkpt><trkpt lat="56.2450660" lon="44.0232080"><time>2018-03-21T22:44:34.967</time></trkpt><trkpt lat="56.2449520" lon="44.0235790"><time>2018-03-21T22:44:42.973</time></trkpt><trkpt lat="56.2448560" lon="44.0239910"><time>2018-03-21T22:44:52.957</time></trkpt><trkpt lat="56.2446720" lon="44.0242470"><time>2018-03-21T22:45:01.907</time></trkpt><trkpt lat="56.2444480" lon="44.0243080"><time>2018-03-21T22:45:11.910</time></trkpt><trkpt lat="56.2442230" lon="44.0243790"><time>2018-03-21T22:45:21.910</time></trkpt><trkpt lat="56.2440100" lon="44.0245830"><time>2018-03-21T22:45:30.973</time></trkpt><trkpt lat="56.2438260" lon="44.0248400"><time>2018-03-21T22:45:39.953</time></trkpt><trkpt lat="56.2436400" lon="44.0250690"><time>2018-03-21T22:45:47.953</time></trkpt><trkpt lat="56.2434640" lon="44.0253890"><time>2018-03-21T22:45:55.960</time></trkpt><trkpt lat="56.2433010" lon="44.0257370"><time>2018-03-21T22:46:03.913</time></trkpt><trkpt lat="56.2432020" lon="44.0261040"><time>2018-03-21T22:46:10.917</time></trkpt><trkpt lat="56.2430700" lon="44.0264920"><time>2018-03-21T22:46:18.907</time></trkpt><trkpt lat="56.2429030" lon="44.0268320"><time>2018-03-21T22:46:26.913</time></trkpt><trkpt lat="56.2427040" lon="44.0270940"><time>2018-03-21T22:46:34.907</time></trkpt><trkpt lat="56.2425110" lon="44.0273570"><time>2018-03-21T22:46:42.910</time></trkpt><trkpt lat="56.2423660" lon="44.0277230"><time>2018-03-21T22:46:51.910</time></trkpt><trkpt lat="56.2422000" lon="44.0280200"><time>2018-03-21T22:46:59.907</time></trkpt><trkpt lat="56.2420110" lon="44.0282450"><time>2018-03-21T22:47:08.920</time></trkpt><trkpt lat="56.2417990" lon="44.0284890"><time>2018-03-21T22:47:18.907</time></trkpt><trkpt lat="56.2416010" lon="44.0287300"><time>2018-03-21T22:47:29.910</time></trkpt><trkpt lat="56.2414050" lon="44.0290080"><time>2018-03-21T22:47:39.920</time></trkpt><trkpt lat="56.2411980" lon="44.0292210"><time>2018-03-21T22:47:48.943</time></trkpt><trkpt lat="56.2410080" lon="44.0294500"><time>2018-03-21T22:47:58.953</time></trkpt><trkpt lat="56.2408510" lon="44.0297490"><time>2018-03-21T22:48:07.913</time></trkpt><trkpt lat="56.2407250" lon="44.0301100"><time>2018-03-21T22:48:19.913</time></trkpt><trkpt lat="56.2405970" lon="44.0304650"><time>2018-03-21T22:48:29.920</time></trkpt><trkpt lat="56.2405010" lon="44.0308390"><time>2018-03-21T22:48:42.913</time></trkpt><trkpt lat="56.2403940" lon="44.0312260"><time>2018-03-21T22:48:54.950</time></trkpt><trkpt lat="56.2402940" lon="44.0315980"><time>2018-03-21T22:49:05.907</time></trkpt><trkpt lat="56.2402930" lon="44.0320370"><time>2018-03-21T22:49:15.913</time></trkpt><trkpt lat="56.2402580" lon="44.0324820"><time>2018-03-21T22:49:24.907</time></trkpt><trkpt lat="56.2402020" lon="44.0328990"><time>2018-03-21T22:49:35.910</time></trkpt><trkpt lat="56.2402720" lon="44.0333280"><time>2018-03-21T22:49:45.913</time></trkpt><trkpt lat="56.2403100" lon="44.0337250"><time>2018-03-21T22:49:53.907</time></trkpt><trkpt lat="56.2403890" lon="44.0341040"><time>2018-03-21T22:50:02.910</time></trkpt><trkpt lat="56.2404660" lon="44.0345140"><time>2018-03-21T22:50:13.917</time></trkpt><trkpt lat="56.2404710" lon="44.0349220"><time>2018-03-21T22:50:22.907</time></trkpt><trkpt lat="56.2404100" lon="44.0353490"><time>2018-03-21T22:50:32.910</time></trkpt><trkpt lat="56.2403510" lon="44.0357730"><time>2018-03-21T22:50:42.907</time></trkpt><trkpt lat="56.2401950" lon="44.0361130"><time>2018-03-21T22:50:52.907</time></trkpt><trkpt lat="56.2401160" lon="44.0365090"><time>2018-03-21T22:51:01.910</time></trkpt><trkpt lat="56.2400520" lon="44.0369010"><time>2018-03-21T22:51:10.917</time></trkpt><trkpt lat="56.2399810" lon="44.0372920"><time>2018-03-21T22:51:19.913</time></trkpt><trkpt lat="56.2399380" lon="44.0377360"><time>2018-03-21T22:51:29.903</time></trkpt><trkpt lat="56.2399380" lon="44.0377360"><time>2018-03-21T22:51:38.147</time></trkpt><trkpt lat="56.2399100" lon="44.0381480"><time>2018-03-21T22:51:47.907</time></trkpt><trkpt lat="56.2398450" lon="44.0385450"><time>2018-03-21T22:51:56.910</time></trkpt><trkpt lat="56.2397190" lon="44.0389230"><time>2018-03-21T22:52:06.913</time></trkpt><trkpt lat="56.2396160" lon="44.0393040"><time>2018-03-21T22:52:16.910</time></trkpt><trkpt lat="56.2396730" lon="44.0396950"><time>2018-03-21T22:52:27.907</time></trkpt><trkpt lat="56.2396730" lon="44.0401350"><time>2018-03-21T22:52:38.910</time></trkpt><trkpt lat="56.2396500" lon="44.0405390"><time>2018-03-21T22:52:48.913</time></trkpt><trkpt lat="56.2395240" lon="44.0408850"><time>2018-03-21T22:52:59.910</time></trkpt><trkpt lat="56.2395360" lon="44.0413100"><time>2018-03-21T22:53:10.917</time></trkpt><trkpt lat="56.2396000" lon="44.0416980"><time>2018-03-21T22:53:20.910</time></trkpt><trkpt lat="56.2396310" lon="44.0421050"><time>2018-03-21T22:53:30.910</time></trkpt><trkpt lat="56.2396150" lon="44.0425210"><time>2018-03-21T22:53:41.903</time></trkpt><trkpt lat="56.2395600" lon="44.0429280"><time>2018-03-21T22:53:52.907</time></trkpt><trkpt lat="56.2394870" lon="44.0433500"><time>2018-03-21T22:54:04.903</time></trkpt><trkpt lat="56.2394080" lon="44.0437480"><time>2018-03-21T22:54:17.907</time></trkpt><trkpt lat="56.2393300" lon="44.0441430"><time>2018-03-21T22:54:30.903</time></trkpt><trkpt lat="56.2392220" lon="44.0445050"><time>2018-03-21T22:54:43.910</time></trkpt><trkpt lat="56.2391260" lon="44.0448870"><time>2018-03-21T22:54:57.907</time></trkpt><trkpt lat="56.2391540" lon="44.0453130"><time>2018-03-21T22:55:10.910</time></trkpt><trkpt lat="56.2392010" lon="44.0457140"><time>2018-03-21T22:55:23.913</time></trkpt><trkpt lat="56.2392530" lon="44.0461090"><time>2018-03-21T22:55:36.910</time></trkpt><trkpt lat="56.2392970" lon="44.0465240"><time>2018-03-21T22:55:51.910</time></trkpt><trkpt lat="56.2393360" lon="44.0469280"><time>2018-03-21T22:56:05.903</time></trkpt><trkpt lat="56.2394120" lon="44.0473170"><time>2018-03-21T22:56:17.907</time></trkpt><trkpt lat="56.2394630" lon="44.0477380"><time>2018-03-21T22:56:28.913</time></trkpt><trkpt lat="56.2395270" lon="44.0481400"><time>2018-03-21T22:56:39.907</time></trkpt><trkpt lat="56.2394780" lon="44.0485460"><time>2018-03-21T22:56:48.903</time></trkpt><trkpt lat="56.2392950" lon="44.0488480"><time>2018-03-21T22:56:57.907</time></trkpt><trkpt lat="56.2391050" lon="44.0490790"><time>2018-03-21T22:57:06.903</time></trkpt><trkpt lat="56.2388680" lon="44.0490270"><time>2018-03-21T22:57:16.907</time></trkpt><trkpt lat="56.2387480" lon="44.0493900"><time>2018-03-21T22:57:27.910</time></trkpt><trkpt lat="56.2386840" lon="44.0497950"><time>2018-03-21T22:57:37.903</time></trkpt><trkpt lat="56.2385930" lon="44.0501670"><time>2018-03-21T22:57:49.910</time></trkpt><trkpt lat="56.2384850" lon="44.0505380"><time>2018-03-21T22:58:01.910</time></trkpt><trkpt lat="56.2383240" lon="44.0508210"><time>2018-03-21T22:58:13.917</time></trkpt><trkpt lat="56.2383110" lon="44.0512480"><time>2018-03-21T22:58:26.907</time></trkpt><trkpt lat="56.2383190" lon="44.0516560"><time>2018-03-21T22:58:38.903</time></trkpt><trkpt lat="56.2382520" lon="44.0520620"><time>2018-03-21T22:58:48.907</time></trkpt><trkpt lat="56.2382140" lon="44.0524850"><time>2018-03-21T22:58:58.907</time></trkpt><trkpt lat="56.2381730" lon="44.0528890"><time>2018-03-21T22:59:08.910</time></trkpt><trkpt lat="56.2381560" lon="44.0533030"><time>2018-03-21T22:59:19.907</time></trkpt><trkpt lat="56.2381570" lon="44.0537340"><time>2018-03-21T22:59:30.907</time></trkpt><trkpt lat="56.2381200" lon="44.0541360"><time>2018-03-21T22:59:42.907</time></trkpt><trkpt lat="56.2381330" lon="44.0545740"><time>2018-03-21T22:59:54.900</time></trkpt><trkpt lat="56.2381350" lon="44.0549840"><time>2018-03-21T23:00:05.907</time></trkpt><trkpt lat="56.2381150" lon="44.0554230"><time>2018-03-21T23:00:15.920</time></trkpt><trkpt lat="56.2381320" lon="44.0558350"><time>2018-03-21T23:00:24.900</time></trkpt><trkpt lat="56.2381460" lon="44.0562630"><time>2018-03-21T23:00:37.907</time></trkpt><trkpt lat="56.2381690" lon="44.0566840"><time>2018-03-21T23:00:48.907</time></trkpt><trkpt lat="56.2382230" lon="44.0570910"><time>2018-03-21T23:00:59.900</time></trkpt><trkpt lat="56.2382850" lon="44.0575110"><time>2018-03-21T23:01:11.907</time></trkpt><trkpt lat="56.2383380" lon="44.0579230"><time>2018-03-21T23:01:21.907</time></trkpt><trkpt lat="56.2383530" lon="44.0583470"><time>2018-03-21T23:01:32.907</time></trkpt><trkpt lat="56.2382390" lon="44.0587120"><time>2018-03-21T23:01:43.900</time></trkpt><trkpt lat="56.2383240" lon="44.0591030"><time>2018-03-21T23:02:00.907</time></trkpt><trkpt lat="56.2384190" lon="44.0594700"><time>2018-03-21T23:02:29.903</time></trkpt><trkpt lat="56.2385680" lon="44.0595210"><time>2018-03-21T23:02:42.357</time></trkpt><trkpt lat="56.2386430" lon="44.0593950"><time>2018-03-21T23:02:56.937</time></trkpt><trkpt lat="56.2388670" lon="44.0593340"><time>2018-03-21T23:03:12.907</time></trkpt><trkpt lat="56.2390940" lon="44.0592430"><time>2018-03-21T23:03:31.930</time></trkpt><trkpt lat="56.2393190" lon="44.0592100"><time>2018-03-21T23:03:46.937</time></trkpt><trkpt lat="56.2395430" lon="44.0591710"><time>2018-03-21T23:04:03.913</time></trkpt><trkpt lat="56.2397700" lon="44.0591240"><time>2018-03-21T23:04:20.960</time></trkpt><trkpt lat="56.2399930" lon="44.0590500"><time>2018-03-21T23:04:39.943</time></trkpt><trkpt lat="56.2402180" lon="44.0590280"><time>2018-03-21T23:04:58.927</time></trkpt><trkpt lat="56.2404530" lon="44.0589700"><time>2018-03-21T23:05:17.913</time></trkpt><trkpt lat="56.2406820" lon="44.0589090"><time>2018-03-21T23:05:35.963</time></trkpt><trkpt lat="56.2409050" lon="44.0588490"><time>2018-03-21T23:05:51.963</time></trkpt><trkpt lat="56.2411310" lon="44.0587900"><time>2018-03-21T23:06:06.963</time></trkpt><trkpt lat="56.2413580" lon="44.0587310"><time>2018-03-21T23:06:21.907</time></trkpt><trkpt lat="56.2415860" lon="44.0586460"><time>2018-03-21T23:06:35.960</time></trkpt><trkpt lat="56.2418110" lon="44.0585910"><time>2018-03-21T23:06:48.960</time></trkpt><trkpt lat="56.2420350" lon="44.0586600"><time>2018-03-21T23:07:01.963</time></trkpt><trkpt lat="56.2422500" lon="44.0587820"><time>2018-03-21T23:07:11.957</time></trkpt><trkpt lat="56.2424750" lon="44.0589310"><time>2018-03-21T23:07:21.960</time></trkpt><trkpt lat="56.2426940" lon="44.0590670"><time>2018-03-21T23:07:31.960</time></trkpt><trkpt lat="56.2429010" lon="44.0592400"><time>2018-03-21T23:07:41.960</time></trkpt><trkpt lat="56.2431330" lon="44.0593110"><time>2018-03-21T23:07:50.957</time></trkpt><trkpt lat="56.2433600" lon="44.0592550"><time>2018-03-21T23:07:59.920</time></trkpt><trkpt lat="56.2434660" lon="44.0596180"><time>2018-03-21T23:08:08.930</time></trkpt><trkpt lat="56.2435770" lon="44.0600160"><time>2018-03-21T23:08:18.907</time></trkpt><trkpt lat="56.2436900" lon="44.0604090"><time>2018-03-21T23:08:28.903</time></trkpt><trkpt lat="56.2438290" lon="44.0607960"><time>2018-03-21T23:08:38.950</time></trkpt><trkpt lat="56.2439550" lon="44.0611750"><time>2018-03-21T23:08:47.953</time></trkpt><trkpt lat="56.2440930" lon="44.0615280"><time>2018-03-21T23:08:56.937</time></trkpt><trkpt lat="56.2442170" lon="44.0618730"><time>2018-03-21T23:09:05.953</time></trkpt><trkpt lat="56.2443440" lon="44.0622460"><time>2018-03-21T23:09:14.933</time></trkpt><trkpt lat="56.2444710" lon="44.0626290"><time>2018-03-21T23:09:23.920</time></trkpt><trkpt lat="56.2446020" lon="44.0629700"><time>2018-03-21T23:09:32.937</time></trkpt><trkpt lat="56.2447130" lon="44.0633480"><time>2018-03-21T23:09:41.903</time></trkpt><trkpt lat="56.2448320" lon="44.0637150"><time>2018-03-21T23:09:50.907</time></trkpt><trkpt lat="56.2450110" lon="44.0639600"><time>2018-03-21T23:10:00.930</time></trkpt><trkpt lat="56.2450870" lon="44.0639470"><time>2018-03-21T23:10:15.707</time></trkpt><trkpt lat="56.2450020" lon="44.0635300"><time>2018-03-21T23:10:42.937</time></trkpt><trkpt lat="56.2449960" lon="44.0631260"><time>2018-03-21T23:10:52.940</time></trkpt><trkpt lat="56.2449730" lon="44.0626930"><time>2018-03-21T23:11:03.960</time></trkpt><trkpt lat="56.2449600" lon="44.0622690"><time>2018-03-21T23:11:13.957</time></trkpt><trkpt lat="56.2449920" lon="44.0618520"><time>2018-03-21T23:11:24.970</time></trkpt><trkpt lat="56.2450410" lon="44.0614200"><time>2018-03-21T23:11:35.967</time></trkpt><trkpt lat="56.2451010" lon="44.0610260"><time>2018-03-21T23:11:45.937</time></trkpt><trkpt lat="56.2451810" lon="44.0606410"><time>2018-03-21T23:11:56.923</time></trkpt><trkpt lat="56.2452490" lon="44.0602550"><time>2018-03-21T23:12:07.903</time></trkpt><trkpt lat="56.2453110" lon="44.0598610"><time>2018-03-21T23:12:19.960</time></trkpt><trkpt lat="56.2454220" lon="44.0594740"><time>2018-03-21T23:12:31.943</time></trkpt><trkpt lat="56.2456610" lon="44.0593940"><time>2018-03-21T23:12:44.903</time></trkpt><trkpt lat="56.2458580" lon="44.0591670"><time>2018-03-21T23:12:58.927</time></trkpt><trkpt lat="56.2460310" lon="44.0588800"><time>2018-03-21T23:13:12.900</time></trkpt><trkpt lat="56.2461690" lon="44.0585300"><time>2018-03-21T23:13:27.947</time></trkpt><trkpt lat="56.2462700" lon="44.0581500"><time>2018-03-21T23:13:41.940</time></trkpt><trkpt lat="56.2463560" lon="44.0577550"><time>2018-03-21T23:13:56.940</time></trkpt><trkpt lat="56.2464660" lon="44.0573910"><time>2018-03-21T23:14:10.967</time></trkpt><trkpt lat="56.2465930" lon="44.0570490"><time>2018-03-21T23:14:24.943</time></trkpt><trkpt lat="56.2467390" lon="44.0567380"><time>2018-03-21T23:14:37.957</time></trkpt><trkpt lat="56.2468690" lon="44.0564050"><time>2018-03-21T23:14:49.943</time></trkpt><trkpt lat="56.2470110" lon="44.0560840"><time>2018-03-21T23:15:01.957</time></trkpt><trkpt lat="56.2471760" lon="44.0557840"><time>2018-03-21T23:15:12.957</time></trkpt><trkpt lat="56.2473490" lon="44.0555140"><time>2018-03-21T23:15:22.953</time></trkpt><trkpt lat="56.2475010" lon="44.0552020"><time>2018-03-21T23:15:31.950</time></trkpt><trkpt lat="56.2476650" lon="44.0548700"><time>2018-03-21T23:15:40.920</time></trkpt><trkpt lat="56.2478200" lon="44.0545460"><time>2018-03-21T23:15:49.913</time></trkpt><trkpt lat="56.2479660" lon="44.0542280"><time>2018-03-21T23:15:58.937</time></trkpt><trkpt lat="56.2481300" lon="44.0538920"><time>2018-03-21T23:16:08.953</time></trkpt><trkpt lat="56.2482890" lon="44.0535910"><time>2018-03-21T23:16:17.960</time></trkpt><trkpt lat="56.2484800" lon="44.0533070"><time>2018-03-21T23:16:27.940</time></trkpt><trkpt lat="56.2486370" lon="44.0530140"><time>2018-03-21T23:16:35.910</time></trkpt><trkpt lat="56.2488190" lon="44.0527090"><time>2018-03-21T23:16:44.927</time></trkpt><trkpt lat="56.2489760" lon="44.0524180"><time>2018-03-21T23:16:53.897</time></trkpt><trkpt lat="56.2491710" lon="44.0521980"><time>2018-03-21T23:17:03.950</time></trkpt><trkpt lat="56.2494000" lon="44.0523140"><time>2018-03-21T23:17:12.940</time></trkpt><trkpt lat="56.2494790" lon="44.0527220"><time>2018-03-21T23:17:19.907</time></trkpt><trkpt lat="56.2495460" lon="44.0531290"><time>2018-03-21T23:17:27.950</time></trkpt><trkpt lat="56.2496480" lon="44.0535180"><time>2018-03-21T23:17:35.960</time></trkpt><trkpt lat="56.2498430" lon="44.0537730"><time>2018-03-21T23:17:44.953</time></trkpt><trkpt lat="56.2500570" lon="44.0539860"><time>2018-03-21T23:17:53.937</time></trkpt><trkpt lat="56.2502470" lon="44.0542820"><time>2018-03-21T23:18:02.893</time></trkpt><trkpt lat="56.2502470" lon="44.0542820"><time>2018-03-21T23:18:11.803</time></trkpt><trkpt lat="56.2504270" lon="44.0545850"><time>2018-03-21T23:18:20.900</time></trkpt><trkpt lat="56.2506340" lon="44.0548070"><time>2018-03-21T23:18:28.900</time></trkpt><trkpt lat="56.2508660" lon="44.0547760"><time>2018-03-21T23:18:37.893</time></trkpt><trkpt lat="56.2510590" lon="44.0545130"><time>2018-03-21T23:18:47.950</time></trkpt><trkpt lat="56.2512790" lon="44.0544150"><time>2018-03-21T23:18:57.897</time></trkpt><trkpt lat="56.2514690" lon="44.0541330"><time>2018-03-21T23:19:08.943</time></trkpt><trkpt lat="56.2516290" lon="44.0538070"><time>2018-03-21T23:19:19.933</time></trkpt><trkpt lat="56.2517980" lon="44.0534850"><time>2018-03-21T23:19:30.953</time></trkpt><trkpt lat="56.2519550" lon="44.0531890"><time>2018-03-21T23:19:40.953</time></trkpt><trkpt lat="56.2521220" lon="44.0528950"><time>2018-03-21T23:19:50.950</time></trkpt><trkpt lat="56.2521820" lon="44.0525030"><time>2018-03-21T23:20:00.947</time></trkpt><trkpt lat="56.2522850" lon="44.0521440"><time>2018-03-21T23:20:10.940</time></trkpt><trkpt lat="56.2524230" lon="44.0517850"><time>2018-03-21T23:20:21.910</time></trkpt><trkpt lat="56.2525350" lon="44.0514280"><time>2018-03-21T23:20:32.903</time></trkpt><trkpt lat="56.2526840" lon="44.0510940"><time>2018-03-21T23:20:45.940</time></trkpt><trkpt lat="56.2528620" lon="44.0508330"><time>2018-03-21T23:20:59.957</time></trkpt><trkpt lat="56.2530380" lon="44.0505670"><time>2018-03-21T23:21:14.913</time></trkpt><trkpt lat="56.2532100" lon="44.0502920"><time>2018-03-21T23:21:30.930</time></trkpt><trkpt lat="56.2533860" lon="44.0500250"><time>2018-03-21T23:21:44.933</time></trkpt><trkpt lat="56.2535700" lon="44.0497930"><time>2018-03-21T23:21:58.897</time></trkpt><trkpt lat="56.2537500" lon="44.0495420"><time>2018-03-21T23:22:13.950</time></trkpt><trkpt lat="56.2539430" lon="44.0492950"><time>2018-03-21T23:22:29.953</time></trkpt><trkpt lat="56.2541260" lon="44.0490340"><time>2018-03-21T23:22:41.900</time></trkpt><trkpt lat="56.2543100" lon="44.0487880"><time>2018-03-21T23:22:51.957</time></trkpt><trkpt lat="56.2544910" lon="44.0485060"><time>2018-03-21T23:23:01.927</time></trkpt><trkpt lat="56.2546760" lon="44.0482580"><time>2018-03-21T23:23:10.930</time></trkpt><trkpt lat="56.2548480" lon="44.0479500"><time>2018-03-21T23:23:19.897</time></trkpt><trkpt lat="56.2549700" lon="44.0475960"><time>2018-03-21T23:23:28.893</time></trkpt><trkpt lat="56.2550860" lon="44.0472280"><time>2018-03-21T23:23:38.960</time></trkpt><trkpt lat="56.2552210" lon="44.0468680"><time>2018-03-21T23:23:49.947</time></trkpt><trkpt lat="56.2553540" lon="44.0465430"><time>2018-03-21T23:24:01.903</time></trkpt><trkpt lat="56.2554530" lon="44.0461810"><time>2018-03-21T23:24:13.937</time></trkpt><trkpt lat="56.2555730" lon="44.0458360"><time>2018-03-21T23:24:25.933</time></trkpt><trkpt lat="56.2557040" lon="44.0454800"><time>2018-03-21T23:24:37.897</time></trkpt><trkpt lat="56.2558540" lon="44.0451360"><time>2018-03-21T23:24:48.897</time></trkpt><trkpt lat="56.2559800" lon="44.0448000"><time>2018-03-21T23:24:57.900</time></trkpt><trkpt lat="56.2561150" lon="44.0444580"><time>2018-03-21T23:25:07.890</time></trkpt><trkpt lat="56.2562360" lon="44.0441020"><time>2018-03-21T23:25:17.890</time></trkpt><trkpt lat="56.2563520" lon="44.0437440"><time>2018-03-21T23:25:27.903</time></trkpt><trkpt lat="56.2564680" lon="44.0433870"><time>2018-03-21T23:25:37.903</time></trkpt><trkpt lat="56.2565860" lon="44.0430420"><time>2018-03-21T23:25:46.950</time></trkpt><trkpt lat="56.2567260" lon="44.0426720"><time>2018-03-21T23:25:56.930</time></trkpt><trkpt lat="56.2568650" lon="44.0423310"><time>2018-03-21T23:26:04.947</time></trkpt><trkpt lat="56.2570210" lon="44.0419990"><time>2018-03-21T23:26:13.927</time></trkpt><trkpt lat="56.2571830" lon="44.0417110"><time>2018-03-21T23:26:21.947</time></trkpt><trkpt lat="56.2573990" lon="44.0414870"><time>2018-03-21T23:26:29.890</time></trkpt><trkpt lat="56.2576040" lon="44.0412250"><time>2018-03-21T23:26:38.930</time></trkpt><trkpt lat="56.2576170" lon="44.0408210"><time>2018-03-21T23:26:55.930</time></trkpt><trkpt lat="56.2575330" lon="44.0404180"><time>2018-03-21T23:27:08.917</time></trkpt><trkpt lat="56.2575250" lon="44.0400000"><time>2018-03-21T23:27:22.927</time></trkpt><trkpt lat="56.2575680" lon="44.0397880"><time>2018-03-21T23:27:32.047</time></trkpt><trkpt lat="56.2575850" lon="44.0396030"><time>2018-03-21T23:27:55.897</time></trkpt><trkpt lat="56.2575850" lon="44.0391980"><time>2018-03-21T23:28:20.903</time></trkpt><trkpt lat="56.2576040" lon="44.0387820"><time>2018-03-21T23:28:54.930</time></trkpt><trkpt lat="56.2576150" lon="44.0383640"><time>2018-03-21T23:29:15.893</time></trkpt><trkpt lat="56.2576550" lon="44.0379650"><time>2018-03-21T23:29:35.917</time></trkpt><trkpt lat="56.2575330" lon="44.0376040"><time>2018-03-21T23:29:53.913</time></trkpt><trkpt lat="56.2573830" lon="44.0372740"><time>2018-03-21T23:30:07.917</time></trkpt><trkpt lat="56.2572190" lon="44.0369990"><time>2018-03-21T23:30:18.897</time></trkpt><trkpt lat="56.2570220" lon="44.0367640"><time>2018-03-21T23:30:29.943</time></trkpt><trkpt lat="56.2568650" lon="44.0364320"><time>2018-03-21T23:30:44.927</time></trkpt><trkpt lat="56.2566650" lon="44.0362420"><time>2018-03-21T23:30:54.927</time></trkpt><trkpt lat="56.2565050" lon="44.0359380"><time>2018-03-21T23:31:09.947</time></trkpt><trkpt lat="56.2563550" lon="44.0356310"><time>2018-03-21T23:31:25.933</time></trkpt><trkpt lat="56.2562530" lon="44.0352710"><time>2018-03-21T23:31:39.930</time></trkpt><trkpt lat="56.2561090" lon="44.0349590"><time>2018-03-21T23:31:56.897</time></trkpt><trkpt lat="56.2559700" lon="44.0346150"><time>2018-03-21T23:32:10.933</time></trkpt><trkpt lat="56.2558100" lon="44.0343180"><time>2018-03-21T23:32:25.947</time></trkpt><trkpt lat="56.2556560" lon="44.0340080"><time>2018-03-21T23:32:39.930</time></trkpt><trkpt lat="56.2555010" lon="44.0337010"><time>2018-03-21T23:32:53.903</time></trkpt><trkpt lat="56.2553690" lon="44.0333680"><time>2018-03-21T23:33:06.947</time></trkpt><trkpt lat="56.2552000" lon="44.0330810"><time>2018-03-21T23:33:19.893</time></trkpt><trkpt lat="56.2550210" lon="44.0327910"><time>2018-03-21T23:33:31.897</time></trkpt><trkpt lat="56.2548600" lon="44.0324910"><time>2018-03-21T23:33:44.927</time></trkpt><trkpt lat="56.2547050" lon="44.0321560"><time>2018-03-21T23:33:58.940</time></trkpt><trkpt lat="56.2545410" lon="44.0318620"><time>2018-03-21T23:34:11.947</time></trkpt><trkpt lat="56.2544140" lon="44.0315110"><time>2018-03-21T23:34:28.923</time></trkpt><trkpt lat="56.2542620" lon="44.0312010"><time>2018-03-21T23:34:42.947</time></trkpt><trkpt lat="56.2541620" lon="44.0308230"><time>2018-03-21T23:34:57.943</time></trkpt><trkpt lat="56.2540090" lon="44.0305280"><time>2018-03-21T23:35:07.937</time></trkpt><trkpt lat="56.2538680" lon="44.0301960"><time>2018-03-21T23:35:19.887</time></trkpt><trkpt lat="56.2536890" lon="44.0299370"><time>2018-03-21T23:35:30.927</time></trkpt><trkpt lat="56.2535430" lon="44.0296170"><time>2018-03-21T23:35:43.937</time></trkpt><trkpt lat="56.2533890" lon="44.0293100"><time>2018-03-21T23:35:58.943</time></trkpt><trkpt lat="56.2532780" lon="44.0289420"><time>2018-03-21T23:36:12.927</time></trkpt><trkpt lat="56.2530820" lon="44.0286760"><time>2018-03-21T23:36:25.930</time></trkpt><trkpt lat="56.2528430" lon="44.0286220"><time>2018-03-21T23:36:37.933</time></trkpt><trkpt lat="56.2527080" lon="44.0283000"><time>2018-03-21T23:36:50.917</time></trkpt><trkpt lat="56.2526710" lon="44.0280890"><time>2018-03-21T23:37:01.770</time></trkpt><trkpt lat="56.2525920" lon="44.0279370"><time>2018-03-21T23:37:17.923</time></trkpt><trkpt lat="56.2527060" lon="44.0275820"><time>2018-03-21T23:37:31.927</time></trkpt><trkpt lat="56.2527850" lon="44.0271970"><time>2018-03-21T23:37:47.943</time></trkpt><trkpt lat="56.2528690" lon="44.0268160"><time>2018-03-21T23:38:01.887</time></trkpt><trkpt lat="56.2529550" lon="44.0264300"><time>2018-03-21T23:38:16.897</time></trkpt><trkpt lat="56.2530460" lon="44.0260320"><time>2018-03-21T23:38:29.893</time></trkpt><trkpt lat="56.2531270" lon="44.0256510"><time>2018-03-21T23:38:40.927</time></trkpt><trkpt lat="56.2532100" lon="44.0252630"><time>2018-03-21T23:38:52.923</time></trkpt><trkpt lat="56.2532810" lon="44.0248660"><time>2018-03-21T23:39:04.927</time></trkpt><trkpt lat="56.2533460" lon="44.0244630"><time>2018-03-21T23:39:18.937</time></trkpt><trkpt lat="56.2534100" lon="44.0240600"><time>2018-03-21T23:39:31.940</time></trkpt><trkpt lat="56.2534580" lon="44.0236310"><time>2018-03-21T23:39:42.943</time></trkpt><trkpt lat="56.2535410" lon="44.0232330"><time>2018-03-21T23:39:53.933</time></trkpt><trkpt lat="56.2536580" lon="44.0228720"><time>2018-03-21T23:40:05.933</time></trkpt><trkpt lat="56.2537270" lon="44.0224790"><time>2018-03-21T23:40:15.913</time></trkpt><trkpt lat="56.2537250" lon="44.0220490"><time>2018-03-21T23:40:24.913</time></trkpt><trkpt lat="56.2538240" lon="44.0216800"><time>2018-03-21T23:40:33.927</time></trkpt><trkpt lat="56.2539070" lon="44.0212770"><time>2018-03-21T23:40:44.947</time></trkpt><trkpt lat="56.2540280" lon="44.0209130"><time>2018-03-21T23:40:56.923</time></trkpt><trkpt lat="56.2541550" lon="44.0205410"><time>2018-03-21T23:41:07.950</time></trkpt><trkpt lat="56.2542110" lon="44.0201150"><time>2018-03-21T23:41:19.923</time></trkpt><trkpt lat="56.2543030" lon="44.0197240"><time>2018-03-21T23:41:28.883</time></trkpt><trkpt lat="56.2544300" lon="44.0193740"><time>2018-03-21T23:41:37.893</time></trkpt><trkpt lat="56.2544280" lon="44.0189650"><time>2018-03-21T23:41:47.887</time></trkpt><trkpt lat="56.2545220" lon="44.0185710"><time>2018-03-21T23:41:56.933</time></trkpt><trkpt lat="56.2546580" lon="44.0182250"><time>2018-03-21T23:42:06.917</time></trkpt><trkpt lat="56.2548190" lon="44.0179200"><time>2018-03-21T23:42:16.930</time></trkpt><trkpt lat="56.2548780" lon="44.0175130"><time>2018-03-21T23:42:25.927</time></trkpt><trkpt lat="56.2550020" lon="44.0171650"><time>2018-03-21T23:42:35.940</time></trkpt><trkpt lat="56.2550380" lon="44.0167340"><time>2018-03-21T23:42:45.927</time></trkpt><trkpt lat="56.2550920" lon="44.0163080"><time>2018-03-21T23:42:54.943</time></trkpt><trkpt lat="56.2551350" lon="44.0158950"><time>2018-03-21T23:43:04.903</time></trkpt><trkpt lat="56.2552310" lon="44.0155020"><time>2018-03-21T23:43:15.890</time></trkpt><trkpt lat="56.2553080" lon="44.0151210"><time>2018-03-21T23:43:24.893</time></trkpt><trkpt lat="56.2553980" lon="44.0147030"><time>2018-03-21T23:43:34.920</time></trkpt><trkpt lat="56.2555280" lon="44.0143360"><time>2018-03-21T23:43:44.920</time></trkpt><trkpt lat="56.2556120" lon="44.0139480"><time>2018-03-21T23:43:54.940</time></trkpt><trkpt lat="56.2557160" lon="44.0135740"><time>2018-03-21T23:44:03.937</time></trkpt><trkpt lat="56.2558350" lon="44.0131860"><time>2018-03-21T23:44:12.917</time></trkpt><trkpt lat="56.2559530" lon="44.0128140"><time>2018-03-21T23:44:21.927</time></trkpt><trkpt lat="56.2560430" lon="44.0124330"><time>2018-03-21T23:44:29.923</time></trkpt><trkpt lat="56.2561590" lon="44.0120360"><time>2018-03-21T23:44:38.920</time></trkpt><trkpt lat="56.2562720" lon="44.0116830"><time>2018-03-21T23:44:46.923</time></trkpt><trkpt lat="56.2564290" lon="44.0113680"><time>2018-03-21T23:44:56.893</time></trkpt></trkseg></trk></gpx>